sensor_id;sensor_type;location;lat;lon;timestamp;P1;durP1;ratioP1;P2;durP2;ratioP2
6356;SDS011;3211;53.452;-2.264;2024-02-16T00:01:39;5.03;;;3.20;;
6356;SDS011;3211;53.452;-2.264;2024-02-16T00:04:26;4.50;;;2.50;;
6356;SDS011;3211;53.452;-2.264;2024-02-16T00:07:14;3.40;;;2.10;;
6356;SDS011;3211;53.452;-2.264;2024-02-16T00:10:01;3.77;;;2.73;;
6356;SDS011;3211;53.452;-2.264;2024-02-16T00:12:49;4.60;;;3.13;;
6356;SDS011;3211;53.452;-2.264;2024-02-16T00:15:37;4.57;;;2.50;;
6356;SDS011;3211;53.452;-2.264;2024-02-16T00:18:26;3.73;;;2.40;;
6356;SDS011;3211;53.452;-2.264;2024-02-16T00:21:13;6.47;;;2.70;;
6356;SDS011;3211;53.452;-2.264;2024-02-16T00:24:02;4.03;;;2.77;;
6356;SDS011;3211;53.452;-2.264;2024-02-16T00:26:51;6.23;;;2.30;;
6356;SDS011;3211;53.452;-2.264;2024-02-16T00:29:39;3.10;;;2.37;;
6356;SDS011;3211;53.452;-2.264;2024-02-16T00:32:26;4.50;;;2.43;;
6356;SDS011;3211;53.452;-2.264;2024-02-16T00:35:17;5.70;;;2.67;;
6356;SDS011;3211;53.452;-2.264;2024-02-16T00:38:04;5.97;;;2.80;;
6356;SDS011;3211;53.452;-2.264;2024-02-16T00:40:52;3.83;;;2.90;;
6356;SDS011;3211;53.452;-2.264;2024-02-16T00:43:39;2.97;;;2.47;;
6356;SDS011;3211;53.452;-2.264;2024-02-16T00:46:26;2.60;;;2.30;;
6356;SDS011;3211;53.452;-2.264;2024-02-16T00:49:14;4.50;;;2.77;;
6356;SDS011;3211;53.452;-2.264;2024-02-16T00:52:02;4.13;;;2.40;;
6356;SDS011;3211;53.452;-2.264;2024-02-16T00:54:51;3.10;;;2.67;;
6356;SDS011;3211;53.452;-2.264;2024-02-16T00:57:38;2.90;;;2.60;;
6356;SDS011;3211;53.452;-2.264;2024-02-16T01:00:25;4.00;;;2.33;;
6356;SDS011;3211;53.452;-2.264;2024-02-16T01:03:13;6.10;;;2.53;;
6356;SDS011;3211;53.452;-2.264;2024-02-16T01:06:00;2.93;;;2.30;;
6356;SDS011;3211;53.452;-2.264;2024-02-16T01:08:49;3.30;;;2.23;;
6356;SDS011;3211;53.452;-2.264;2024-02-16T01:11:36;5.33;;;2.90;;
6356;SDS011;3211;53.452;-2.264;2024-02-16T01:14:24;3.33;;;2.83;;
6356;SDS011;3211;53.452;-2.264;2024-02-16T01:17:11;3.90;;;2.60;;
6356;SDS011;3211;53.452;-2.264;2024-02-16T01:19:59;5.33;;;2.70;;
6356;SDS011;3211;53.452;-2.264;2024-02-16T01:22:47;4.20;;;2.80;;
6356;SDS011;3211;53.452;-2.264;2024-02-16T01:25:35;3.43;;;2.60;;
6356;SDS011;3211;53.452;-2.264;2024-02-16T01:28:23;4.23;;;3.30;;
6356;SDS011;3211;53.452;-2.264;2024-02-16T01:31:10;4.70;;;2.67;;
6356;SDS011;3211;53.452;-2.264;2024-02-16T01:33:57;2.87;;;2.57;;
6356;SDS011;3211;53.452;-2.264;2024-02-16T01:36:45;4.23;;;2.93;;
6356;SDS011;3211;53.452;-2.264;2024-02-16T01:39:32;4.60;;;3.20;;
6356;SDS011;3211;53.452;-2.264;2024-02-16T01:42:21;3.80;;;2.77;;
6356;SDS011;3211;53.452;-2.264;2024-02-16T01:45:11;4.40;;;3.40;;
6356;SDS011;3211;53.452;-2.264;2024-02-16T01:47:58;4.17;;;3.00;;
6356;SDS011;3211;53.452;-2.264;2024-02-16T01:50:46;3.40;;;2.80;;
6356;SDS011;3211;53.452;-2.264;2024-02-16T01:53:35;3.33;;;2.60;;
6356;SDS011;3211;53.452;-2.264;2024-02-16T01:56:23;4.93;;;2.80;;
6356;SDS011;3211;53.452;-2.264;2024-02-16T01:59:13;3.50;;;2.90;;
6356;SDS011;3211;53.452;-2.264;2024-02-16T02:02:01;7.83;;;2.80;;
6356;SDS011;3211;53.452;-2.264;2024-02-16T02:04:48;3.23;;;2.60;;
6356;SDS011;3211;53.452;-2.264;2024-02-16T02:07:36;4.00;;;3.00;;
6356;SDS011;3211;53.452;-2.264;2024-02-16T02:10:23;4.03;;;3.30;;
6356;SDS011;3211;53.452;-2.264;2024-02-16T02:13:10;4.97;;;3.10;;
6356;SDS011;3211;53.452;-2.264;2024-02-16T02:15:59;3.50;;;2.90;;
6356;SDS011;3211;53.452;-2.264;2024-02-16T02:18:50;4.87;;;3.00;;
6356;SDS011;3211;53.452;-2.264;2024-02-16T02:21:37;3.10;;;2.80;;
6356;SDS011;3211;53.452;-2.264;2024-02-16T02:24:25;4.10;;;2.40;;
6356;SDS011;3211;53.452;-2.264;2024-02-16T02:27:15;2.50;;;2.30;;
6356;SDS011;3211;53.452;-2.264;2024-02-16T02:30:04;4.07;;;2.23;;
6356;SDS011;3211;53.452;-2.264;2024-02-16T02:32:52;3.23;;;2.47;;
6356;SDS011;3211;53.452;-2.264;2024-02-16T02:35:39;4.20;;;2.70;;
6356;SDS011;3211;53.452;-2.264;2024-02-16T02:38:26;2.30;;;2.10;;
6356;SDS011;3211;53.452;-2.264;2024-02-16T02:41:15;3.53;;;2.30;;
6356;SDS011;3211;53.452;-2.264;2024-02-16T02:44:05;5.10;;;2.90;;
6356;SDS011;3211;53.452;-2.264;2024-02-16T02:46:52;3.87;;;2.40;;
6356;SDS011;3211;53.452;-2.264;2024-02-16T02:49:39;3.17;;;2.30;;
6356;SDS011;3211;53.452;-2.264;2024-02-16T02:52:27;2.20;;;2.00;;
6356;SDS011;3211;53.452;-2.264;2024-02-16T02:55:14;4.80;;;2.00;;
6356;SDS011;3211;53.452;-2.264;2024-02-16T02:58:03;2.80;;;2.33;;
6356;SDS011;3211;53.452;-2.264;2024-02-16T03:00:50;3.07;;;2.77;;
6356;SDS011;3211;53.452;-2.264;2024-02-16T03:03:37;4.00;;;3.10;;
6356;SDS011;3211;53.452;-2.264;2024-02-16T03:06:25;7.60;;;3.50;;
6356;SDS011;3211;53.452;-2.264;2024-02-16T03:09:12;6.50;;;3.97;;
6356;SDS011;3211;53.452;-2.264;2024-02-16T03:12:00;4.83;;;3.80;;
6356;SDS011;3211;53.452;-2.264;2024-02-16T03:14:49;4.07;;;3.67;;
6356;SDS011;3211;53.452;-2.264;2024-02-16T03:17:36;5.13;;;4.30;;
6356;SDS011;3211;53.452;-2.264;2024-02-16T03:20:23;5.30;;;4.80;;
6356;SDS011;3211;53.452;-2.264;2024-02-16T03:23:10;4.67;;;4.13;;
6356;SDS011;3211;53.452;-2.264;2024-02-16T03:25:57;6.53;;;2.90;;
6356;SDS011;3211;53.452;-2.264;2024-02-16T03:28:45;2.83;;;2.47;;
6356;SDS011;3211;53.452;-2.264;2024-02-16T03:31:34;4.30;;;2.60;;
6356;SDS011;3211;53.452;-2.264;2024-02-16T03:34:21;2.33;;;2.13;;
6356;SDS011;3211;53.452;-2.264;2024-02-16T03:37:09;2.77;;;2.20;;
6356;SDS011;3211;53.452;-2.264;2024-02-16T03:39:56;2.27;;;2.07;;
6356;SDS011;3211;53.452;-2.264;2024-02-16T03:42:43;2.53;;;2.30;;
6356;SDS011;3211;53.452;-2.264;2024-02-16T03:45:31;2.00;;;1.80;;
6356;SDS011;3211;53.452;-2.264;2024-02-16T03:48:19;5.03;;;2.13;;
6356;SDS011;3211;53.452;-2.264;2024-02-16T03:51:06;3.03;;;2.03;;
6356;SDS011;3211;53.452;-2.264;2024-02-16T03:53:54;3.37;;;2.40;;
6356;SDS011;3211;53.452;-2.264;2024-02-16T03:56:41;3.67;;;2.10;;
6356;SDS011;3211;53.452;-2.264;2024-02-16T03:59:30;4.77;;;2.20;;
6356;SDS011;3211;53.452;-2.264;2024-02-16T04:02:18;2.60;;;2.17;;
6356;SDS011;3211;53.452;-2.264;2024-02-16T04:05:07;3.73;;;3.43;;
6356;SDS011;3211;53.452;-2.264;2024-02-16T04:07:54;2.30;;;2.03;;
6356;SDS011;3211;53.452;-2.264;2024-02-16T04:10:42;4.00;;;2.20;;
6356;SDS011;3211;53.452;-2.264;2024-02-16T04:13:29;3.37;;;2.30;;
6356;SDS011;3211;53.452;-2.264;2024-02-16T04:16:17;2.37;;;2.00;;
6356;SDS011;3211;53.452;-2.264;2024-02-16T04:19:07;3.20;;;2.20;;
6356;SDS011;3211;53.452;-2.264;2024-02-16T04:21:56;7.70;;;2.63;;
6356;SDS011;3211;53.452;-2.264;2024-02-16T04:24:43;7.00;;;2.87;;
6356;SDS011;3211;53.452;-2.264;2024-02-16T04:27:30;4.93;;;2.30;;
6356;SDS011;3211;53.452;-2.264;2024-02-16T04:30:17;4.80;;;2.63;;
6356;SDS011;3211;53.452;-2.264;2024-02-16T04:33:05;2.80;;;2.40;;
6356;SDS011;3211;53.452;-2.264;2024-02-16T04:35:52;2.20;;;2.00;;
6356;SDS011;3211;53.452;-2.264;2024-02-16T04:38:41;6.40;;;3.40;;
6356;SDS011;3211;53.452;-2.264;2024-02-16T04:41:28;4.10;;;2.40;;
6356;SDS011;3211;53.452;-2.264;2024-02-16T04:44:15;4.77;;;2.30;;
6356;SDS011;3211;53.452;-2.264;2024-02-16T04:47:03;2.40;;;2.20;;
6356;SDS011;3211;53.452;-2.264;2024-02-16T04:49:50;4.07;;;2.13;;
6356;SDS011;3211;53.452;-2.264;2024-02-16T04:52:37;5.30;;;2.33;;
6356;SDS011;3211;53.452;-2.264;2024-02-16T04:55:27;3.50;;;2.20;;
6356;SDS011;3211;53.452;-2.264;2024-02-16T04:58:15;2.60;;;1.67;;
6356;SDS011;3211;53.452;-2.264;2024-02-16T05:01:02;3.10;;;2.20;;
6356;SDS011;3211;53.452;-2.264;2024-02-16T05:03:52;5.33;;;2.20;;
6356;SDS011;3211;53.452;-2.264;2024-02-16T05:06:39;3.53;;;2.00;;
6356;SDS011;3211;53.452;-2.264;2024-02-16T05:09:27;2.87;;;1.67;;
6356;SDS011;3211;53.452;-2.264;2024-02-16T05:12:16;4.70;;;1.87;;
6356;SDS011;3211;53.452;-2.264;2024-02-16T05:15:05;6.27;;;2.50;;
6356;SDS011;3211;53.452;-2.264;2024-02-16T05:17:54;2.30;;;1.97;;
6356;SDS011;3211;53.452;-2.264;2024-02-16T05:20:43;5.87;;;2.03;;
6356;SDS011;3211;53.452;-2.264;2024-02-16T05:23:30;2.07;;;1.67;;
6356;SDS011;3211;53.452;-2.264;2024-02-16T05:26:17;3.50;;;2.10;;
6356;SDS011;3211;53.452;-2.264;2024-02-16T05:29:07;7.33;;;2.13;;
6356;SDS011;3211;53.452;-2.264;2024-02-16T05:31:54;7.17;;;2.00;;
6356;SDS011;3211;53.452;-2.264;2024-02-16T05:34:41;5.40;;;1.90;;
6356;SDS011;3211;53.452;-2.264;2024-02-16T05:37:29;5.87;;;1.90;;
6356;SDS011;3211;53.452;-2.264;2024-02-16T05:40:17;4.10;;;1.93;;
6356;SDS011;3211;53.452;-2.264;2024-02-16T05:43:07;3.17;;;1.90;;
6356;SDS011;3211;53.452;-2.264;2024-02-16T05:45:55;4.67;;;1.80;;
6356;SDS011;3211;53.452;-2.264;2024-02-16T05:48:43;3.30;;;1.80;;
6356;SDS011;3211;53.452;-2.264;2024-02-16T05:51:34;9.27;;;2.13;;
6356;SDS011;3211;53.452;-2.264;2024-02-16T05:54:22;4.17;;;2.20;;
6356;SDS011;3211;53.452;-2.264;2024-02-16T05:57:09;3.40;;;1.83;;
6356;SDS011;3211;53.452;-2.264;2024-02-16T05:59:57;3.83;;;1.87;;
6356;SDS011;3211;53.452;-2.264;2024-02-16T06:02:46;3.87;;;2.20;;
6356;SDS011;3211;53.452;-2.264;2024-02-16T06:05:34;5.63;;;2.03;;
6356;SDS011;3211;53.452;-2.264;2024-02-16T06:08:21;6.50;;;2.40;;
6356;SDS011;3211;53.452;-2.264;2024-02-16T06:11:08;4.77;;;2.20;;
6356;SDS011;3211;53.452;-2.264;2024-02-16T06:13:56;6.27;;;2.53;;
6356;SDS011;3211;53.452;-2.264;2024-02-16T06:16:43;4.97;;;2.93;;
6356;SDS011;3211;53.452;-2.264;2024-02-16T06:19:33;10.40;;;3.00;;
6356;SDS011;3211;53.452;-2.264;2024-02-16T06:22:20;3.00;;;2.20;;
6356;SDS011;3211;53.452;-2.264;2024-02-16T06:25:07;7.03;;;2.97;;
6356;SDS011;3211;53.452;-2.264;2024-02-16T06:27:55;4.90;;;2.27;;
6356;SDS011;3211;53.452;-2.264;2024-02-16T06:30:42;3.87;;;2.77;;
6356;SDS011;3211;53.452;-2.264;2024-02-16T06:33:30;4.60;;;2.57;;
6356;SDS011;3211;53.452;-2.264;2024-02-16T06:36:19;4.83;;;2.60;;
6356;SDS011;3211;53.452;-2.264;2024-02-16T06:39:06;4.30;;;2.60;;
6356;SDS011;3211;53.452;-2.264;2024-02-16T06:41:55;4.90;;;2.20;;
6356;SDS011;3211;53.452;-2.264;2024-02-16T06:44:42;3.10;;;2.40;;
6356;SDS011;3211;53.452;-2.264;2024-02-16T06:47:29;4.53;;;2.20;;
6356;SDS011;3211;53.452;-2.264;2024-02-16T06:50:17;4.30;;;2.40;;
6356;SDS011;3211;53.452;-2.264;2024-02-16T06:53:05;9.87;;;3.10;;
6356;SDS011;3211;53.452;-2.264;2024-02-16T06:55:53;3.57;;;2.53;;
6356;SDS011;3211;53.452;-2.264;2024-02-16T06:58:40;8.20;;;2.67;;
6356;SDS011;3211;53.452;-2.264;2024-02-16T07:01:27;3.33;;;2.27;;
6356;SDS011;3211;53.452;-2.264;2024-02-16T07:04:14;5.23;;;2.40;;
6356;SDS011;3211;53.452;-2.264;2024-02-16T07:07:02;4.10;;;2.20;;
6356;SDS011;3211;53.452;-2.264;2024-02-16T07:09:53;6.53;;;3.17;;
6356;SDS011;3211;53.452;-2.264;2024-02-16T07:12:40;5.90;;;2.60;;
6356;SDS011;3211;53.452;-2.264;2024-02-16T07:15:28;5.20;;;3.07;;
6356;SDS011;3211;53.452;-2.264;2024-02-16T07:18:15;4.97;;;3.00;;
6356;SDS011;3211;53.452;-2.264;2024-02-16T07:21:03;4.40;;;2.80;;
6356;SDS011;3211;53.452;-2.264;2024-02-16T07:23:50;4.20;;;3.10;;
6356;SDS011;3211;53.452;-2.264;2024-02-16T07:26:40;3.83;;;2.27;;
6356;SDS011;3211;53.452;-2.264;2024-02-16T07:29:27;5.33;;;2.93;;
6356;SDS011;3211;53.452;-2.264;2024-02-16T07:32:15;3.77;;;2.60;;
6356;SDS011;3211;53.452;-2.264;2024-02-16T07:35:02;2.93;;;2.57;;
6356;SDS011;3211;53.452;-2.264;2024-02-16T07:37:50;8.27;;;3.00;;
6356;SDS011;3211;53.452;-2.264;2024-02-16T07:40:39;3.70;;;2.57;;
6356;SDS011;3211;53.452;-2.264;2024-02-16T07:43:28;4.30;;;2.70;;
6356;SDS011;3211;53.452;-2.264;2024-02-16T07:46:15;9.67;;;3.60;;
6356;SDS011;3211;53.452;-2.264;2024-02-16T07:49:03;6.33;;;3.03;;
6356;SDS011;3211;53.452;-2.264;2024-02-16T07:51:51;11.57;;;4.20;;
6356;SDS011;3211;53.452;-2.264;2024-02-16T07:54:38;7.10;;;2.83;;
6356;SDS011;3211;53.452;-2.264;2024-02-16T07:57:26;6.53;;;3.23;;
6356;SDS011;3211;53.452;-2.264;2024-02-16T08:00:14;4.47;;;3.10;;
6356;SDS011;3211;53.452;-2.264;2024-02-16T08:03:02;5.50;;;2.83;;
6356;SDS011;3211;53.452;-2.264;2024-02-16T08:05:50;6.13;;;2.80;;
6356;SDS011;3211;53.452;-2.264;2024-02-16T08:08:37;6.43;;;2.93;;
6356;SDS011;3211;53.452;-2.264;2024-02-16T08:11:24;5.30;;;3.53;;
6356;SDS011;3211;53.452;-2.264;2024-02-16T08:14:12;5.73;;;2.90;;
6356;SDS011;3211;53.452;-2.264;2024-02-16T08:17:01;4.90;;;2.80;;
6356;SDS011;3211;53.452;-2.264;2024-02-16T08:19:51;7.33;;;3.40;;
6356;SDS011;3211;53.452;-2.264;2024-02-16T08:22:40;5.03;;;3.03;;
6356;SDS011;3211;53.452;-2.264;2024-02-16T08:25:27;7.27;;;3.33;;
6356;SDS011;3211;53.452;-2.264;2024-02-16T08:28:15;4.20;;;3.27;;
6356;SDS011;3211;53.452;-2.264;2024-02-16T08:31:03;7.70;;;3.40;;
6356;SDS011;3211;53.452;-2.264;2024-02-16T08:33:52;3.77;;;3.00;;
6356;SDS011;3211;53.452;-2.264;2024-02-16T08:36:39;5.33;;;3.10;;
6356;SDS011;3211;53.452;-2.264;2024-02-16T08:39:29;5.23;;;3.03;;
6356;SDS011;3211;53.452;-2.264;2024-02-16T08:42:17;4.63;;;3.67;;
6356;SDS011;3211;53.452;-2.264;2024-02-16T08:45:05;6.03;;;3.40;;
6356;SDS011;3211;53.452;-2.264;2024-02-16T08:47:52;5.80;;;3.50;;
6356;SDS011;3211;53.452;-2.264;2024-02-16T08:50:43;4.97;;;3.10;;
6356;SDS011;3211;53.452;-2.264;2024-02-16T08:53:30;6.43;;;3.13;;
6356;SDS011;3211;53.452;-2.264;2024-02-16T08:56:18;7.17;;;2.40;;
6356;SDS011;3211;53.452;-2.264;2024-02-16T08:59:05;7.77;;;3.57;;
6356;SDS011;3211;53.452;-2.264;2024-02-16T09:01:52;4.40;;;2.80;;
6356;SDS011;3211;53.452;-2.264;2024-02-16T09:04:40;3.77;;;2.50;;
6356;SDS011;3211;53.452;-2.264;2024-02-16T09:07:28;4.37;;;2.40;;
6356;SDS011;3211;53.452;-2.264;2024-02-16T09:10:15;4.13;;;3.50;;
6356;SDS011;3211;53.452;-2.264;2024-02-16T09:13:03;5.80;;;2.60;;
6356;SDS011;3211;53.452;-2.264;2024-02-16T09:15:52;2.80;;;2.30;;
6356;SDS011;3211;53.452;-2.264;2024-02-16T09:18:39;3.27;;;2.27;;
6356;SDS011;3211;53.452;-2.264;2024-02-16T09:21:26;5.17;;;1.97;;
6356;SDS011;3211;53.452;-2.264;2024-02-16T09:24:16;4.10;;;2.43;;
6356;SDS011;3211;53.452;-2.264;2024-02-16T09:27:04;4.27;;;2.47;;
6356;SDS011;3211;53.452;-2.264;2024-02-16T09:29:52;6.57;;;2.63;;
6356;SDS011;3211;53.452;-2.264;2024-02-16T09:32:39;3.77;;;2.10;;
6356;SDS011;3211;53.452;-2.264;2024-02-16T09:35:27;3.10;;;2.13;;
6356;SDS011;3211;53.452;-2.264;2024-02-16T09:38:14;4.43;;;2.37;;
6356;SDS011;3211;53.452;-2.264;2024-02-16T09:41:03;4.60;;;2.10;;
6356;SDS011;3211;53.452;-2.264;2024-02-16T09:43:51;4.33;;;2.00;;
6356;SDS011;3211;53.452;-2.264;2024-02-16T09:46:39;4.70;;;2.67;;
6356;SDS011;3211;53.452;-2.264;2024-02-16T09:49:27;3.70;;;1.97;;
6356;SDS011;3211;53.452;-2.264;2024-02-16T09:52:14;4.20;;;2.00;;
6356;SDS011;3211;53.452;-2.264;2024-02-16T09:55:02;3.27;;;2.00;;
6356;SDS011;3211;53.452;-2.264;2024-02-16T09:57:59;3.00;;;2.00;;
6356;SDS011;3211;53.452;-2.264;2024-02-16T10:00:48;4.10;;;2.50;;
6356;SDS011;3211;53.452;-2.264;2024-02-16T10:03:43;3.73;;;2.20;;
6356;SDS011;3211;53.452;-2.264;2024-02-16T10:06:30;3.57;;;2.23;;
6356;SDS011;3211;53.452;-2.264;2024-02-16T10:09:23;13.20;;;2.70;;
6356;SDS011;3211;53.452;-2.264;2024-02-16T10:12:17;4.90;;;1.93;;
6356;SDS011;3211;53.452;-2.264;2024-02-16T10:15:08;5.30;;;2.23;;
6356;SDS011;3211;53.452;-2.264;2024-02-16T10:17:59;5.37;;;2.40;;
6356;SDS011;3211;53.452;-2.264;2024-02-16T10:20:47;2.13;;;1.90;;
6356;SDS011;3211;53.452;-2.264;2024-02-16T10:23:34;2.80;;;1.90;;
6356;SDS011;3211;53.452;-2.264;2024-02-16T10:26:21;5.70;;;2.33;;
6356;SDS011;3211;53.452;-2.264;2024-02-16T10:29:10;4.87;;;2.20;;
6356;SDS011;3211;53.452;-2.264;2024-02-16T10:32:00;3.57;;;2.50;;
6356;SDS011;3211;53.452;-2.264;2024-02-16T10:34:48;6.43;;;2.53;;
6356;SDS011;3211;53.452;-2.264;2024-02-16T10:37:36;4.13;;;2.40;;
6356;SDS011;3211;53.452;-2.264;2024-02-16T10:40:25;3.50;;;2.50;;
6356;SDS011;3211;53.452;-2.264;2024-02-16T10:43:14;3.53;;;2.00;;
6356;SDS011;3211;53.452;-2.264;2024-02-16T10:46:04;2.33;;;1.80;;
6356;SDS011;3211;53.452;-2.264;2024-02-16T10:48:53;3.13;;;1.83;;
6356;SDS011;3211;53.452;-2.264;2024-02-16T10:51:41;5.23;;;2.30;;
6356;SDS011;3211;53.452;-2.264;2024-02-16T10:54:31;2.63;;;2.10;;
6356;SDS011;3211;53.452;-2.264;2024-02-16T10:57:20;3.67;;;2.50;;
6356;SDS011;3211;53.452;-2.264;2024-02-16T11:00:10;4.07;;;2.43;;
6356;SDS011;3211;53.452;-2.264;2024-02-16T11:02:58;4.50;;;2.10;;
6356;SDS011;3211;53.452;-2.264;2024-02-16T11:05:51;3.80;;;2.50;;
6356;SDS011;3211;53.452;-2.264;2024-02-16T11:08:39;4.20;;;2.30;;
6356;SDS011;3211;53.452;-2.264;2024-02-16T11:11:26;3.67;;;2.50;;
6356;SDS011;3211;53.452;-2.264;2024-02-16T11:14:14;10.87;;;2.80;;
6356;SDS011;3211;53.452;-2.264;2024-02-16T11:17:07;3.20;;;2.27;;
6356;SDS011;3211;53.452;-2.264;2024-02-16T11:19:55;1.97;;;1.50;;
6356;SDS011;3211;53.452;-2.264;2024-02-16T11:22:44;2.03;;;1.83;;
6356;SDS011;3211;53.452;-2.264;2024-02-16T11:25:31;8.13;;;1.50;;
6356;SDS011;3211;53.452;-2.264;2024-02-16T11:28:19;4.33;;;1.73;;
6356;SDS011;3211;53.452;-2.264;2024-02-16T11:31:07;3.10;;;1.53;;
6356;SDS011;3211;53.452;-2.264;2024-02-16T11:33:55;2.10;;;1.57;;
6356;SDS011;3211;53.452;-2.264;2024-02-16T11:36:43;3.83;;;1.30;;
6356;SDS011;3211;53.452;-2.264;2024-02-16T11:39:32;3.27;;;1.80;;
6356;SDS011;3211;53.452;-2.264;2024-02-16T11:42:21;2.40;;;1.73;;
6356;SDS011;3211;53.452;-2.264;2024-02-16T11:45:10;3.87;;;1.67;;
6356;SDS011;3211;53.452;-2.264;2024-02-16T11:48:05;2.23;;;2.00;;
6356;SDS011;3211;53.452;-2.264;2024-02-16T11:50:58;2.10;;;1.60;;
6356;SDS011;3211;53.452;-2.264;2024-02-16T11:53:54;1.87;;;1.70;;
6356;SDS011;3211;53.452;-2.264;2024-02-16T11:56:44;2.43;;;1.70;;
6356;SDS011;3211;53.452;-2.264;2024-02-16T11:59:32;2.33;;;1.60;;
6356;SDS011;3211;53.452;-2.264;2024-02-16T12:02:20;3.67;;;1.80;;
6356;SDS011;3211;53.452;-2.264;2024-02-16T12:05:07;2.50;;;1.80;;
6356;SDS011;3211;53.452;-2.264;2024-02-16T12:07:57;6.30;;;1.77;;
6356;SDS011;3211;53.452;-2.264;2024-02-16T12:10:45;6.20;;;2.00;;
6356;SDS011;3211;53.452;-2.264;2024-02-16T12:13:35;3.77;;;1.80;;
6356;SDS011;3211;53.452;-2.264;2024-02-16T12:16:23;2.00;;;1.80;;
6356;SDS011;3211;53.452;-2.264;2024-02-16T12:19:12;3.13;;;2.00;;
6356;SDS011;3211;53.452;-2.264;2024-02-16T12:21:59;3.00;;;2.10;;
6356;SDS011;3211;53.452;-2.264;2024-02-16T12:24:47;11.33;;;2.10;;
6356;SDS011;3211;53.452;-2.264;2024-02-16T12:27:35;3.00;;;2.43;;
6356;SDS011;3211;53.452;-2.264;2024-02-16T12:30:24;3.40;;;1.60;;
6356;SDS011;3211;53.452;-2.264;2024-02-16T12:33:11;2.67;;;1.80;;
6356;SDS011;3211;53.452;-2.264;2024-02-16T12:35:58;2.27;;;1.80;;
6356;SDS011;3211;53.452;-2.264;2024-02-16T12:38:46;2.20;;;1.60;;
6356;SDS011;3211;53.452;-2.264;2024-02-16T12:41:34;1.63;;;1.50;;
6356;SDS011;3211;53.452;-2.264;2024-02-16T12:44:21;1.80;;;1.70;;
6356;SDS011;3211;53.452;-2.264;2024-02-16T12:47:10;1.90;;;1.70;;
6356;SDS011;3211;53.452;-2.264;2024-02-16T12:49:57;2.20;;;1.70;;
6356;SDS011;3211;53.452;-2.264;2024-02-16T12:52:45;4.00;;;2.07;;
6356;SDS011;3211;53.452;-2.264;2024-02-16T12:55:32;2.33;;;1.80;;
6356;SDS011;3211;53.452;-2.264;2024-02-16T12:58:19;6.53;;;2.20;;
6356;SDS011;3211;53.452;-2.264;2024-02-16T13:01:07;3.50;;;2.40;;
6356;SDS011;3211;53.452;-2.264;2024-02-16T13:03:56;1.77;;;1.50;;
6356;SDS011;3211;53.452;-2.264;2024-02-16T13:06:43;1.97;;;1.53;;
6356;SDS011;3211;53.452;-2.264;2024-02-16T13:09:30;1.43;;;1.33;;
6356;SDS011;3211;53.452;-2.264;2024-02-16T13:12:18;2.23;;;1.30;;
6356;SDS011;3211;53.452;-2.264;2024-02-16T13:15:08;1.50;;;1.40;;
6356;SDS011;3211;53.452;-2.264;2024-02-16T13:17:55;1.40;;;1.30;;
6356;SDS011;3211;53.452;-2.264;2024-02-16T13:20:44;1.87;;;1.40;;
6356;SDS011;3211;53.452;-2.264;2024-02-16T13:23:32;1.73;;;1.63;;
6356;SDS011;3211;53.452;-2.264;2024-02-16T13:26:19;1.83;;;1.67;;
6356;SDS011;3211;53.452;-2.264;2024-02-16T13:29:07;1.30;;;1.20;;
6356;SDS011;3211;53.452;-2.264;2024-02-16T13:31:54;2.47;;;1.40;;
6356;SDS011;3211;53.452;-2.264;2024-02-16T13:34:41;1.70;;;1.60;;
6356;SDS011;3211;53.452;-2.264;2024-02-16T13:37:30;2.13;;;1.30;;
6356;SDS011;3211;53.452;-2.264;2024-02-16T13:40:17;1.80;;;1.33;;
6356;SDS011;3211;53.452;-2.264;2024-02-16T13:43:05;2.80;;;1.50;;
6356;SDS011;3211;53.452;-2.264;2024-02-16T13:45:53;1.60;;;1.50;;
6356;SDS011;3211;53.452;-2.264;2024-02-16T13:48:43;1.43;;;1.33;;
6356;SDS011;3211;53.452;-2.264;2024-02-16T13:51:30;1.40;;;1.30;;
6356;SDS011;3211;53.452;-2.264;2024-02-16T13:54:20;1.60;;;1.50;;
6356;SDS011;3211;53.452;-2.264;2024-02-16T13:57:08;1.60;;;1.50;;
6356;SDS011;3211;53.452;-2.264;2024-02-16T13:59:56;1.80;;;1.40;;
6356;SDS011;3211;53.452;-2.264;2024-02-16T14:02:43;1.30;;;1.20;;
6356;SDS011;3211;53.452;-2.264;2024-02-16T14:05:31;3.47;;;1.20;;
6356;SDS011;3211;53.452;-2.264;2024-02-16T14:08:18;1.90;;;1.50;;
6356;SDS011;3211;53.452;-2.264;2024-02-16T14:11:07;1.23;;;1.10;;
6356;SDS011;3211;53.452;-2.264;2024-02-16T14:13:54;2.27;;;1.40;;
6356;SDS011;3211;53.452;-2.264;2024-02-16T14:16:42;1.20;;;1.10;;
6356;SDS011;3211;53.452;-2.264;2024-02-16T14:19:29;3.37;;;1.20;;
6356;SDS011;3211;53.452;-2.264;2024-02-16T14:22:16;1.10;;;1.00;;
6356;SDS011;3211;53.452;-2.264;2024-02-16T14:25:04;1.80;;;1.43;;
6356;SDS011;3211;53.452;-2.264;2024-02-16T14:27:52;3.20;;;1.20;;
6356;SDS011;3211;53.452;-2.264;2024-02-16T14:30:40;3.23;;;1.33;;
6356;SDS011;3211;53.452;-2.264;2024-02-16T14:33:28;1.47;;;1.20;;
6356;SDS011;3211;53.452;-2.264;2024-02-16T14:36:15;1.20;;;1.10;;
6356;SDS011;3211;53.452;-2.264;2024-02-16T14:39:02;2.43;;;1.00;;
6356;SDS011;3211;53.452;-2.264;2024-02-16T14:41:50;1.20;;;1.10;;
6356;SDS011;3211;53.452;-2.264;2024-02-16T14:44:38;1.40;;;1.00;;
6356;SDS011;3211;53.452;-2.264;2024-02-16T14:47:26;2.63;;;1.20;;
6356;SDS011;3211;53.452;-2.264;2024-02-16T14:50:13;1.63;;;1.10;;
6356;SDS011;3211;53.452;-2.264;2024-02-16T14:53:00;1.10;;;1.00;;
6356;SDS011;3211;53.452;-2.264;2024-02-16T14:55:49;4.63;;;1.40;;
6356;SDS011;3211;53.452;-2.264;2024-02-16T14:58:36;1.93;;;1.20;;
6356;SDS011;3211;53.452;-2.264;2024-02-16T15:01:25;1.70;;;1.00;;
6356;SDS011;3211;53.452;-2.264;2024-02-16T15:04:13;1.83;;;1.00;;
6356;SDS011;3211;53.452;-2.264;2024-02-16T15:07:00;3.77;;;1.30;;
6356;SDS011;3211;53.452;-2.264;2024-02-16T15:09:47;1.10;;;1.00;;
6356;SDS011;3211;53.452;-2.264;2024-02-16T15:12:35;1.63;;;1.00;;
6356;SDS011;3211;53.452;-2.264;2024-02-16T15:15:25;1.57;;;1.13;;
6356;SDS011;3211;53.452;-2.264;2024-02-16T15:18:14;4.90;;;1.63;;
6356;SDS011;3211;53.452;-2.264;2024-02-16T15:21:02;2.40;;;1.40;;
6356;SDS011;3211;53.452;-2.264;2024-02-16T15:23:49;1.57;;;1.10;;
6356;SDS011;3211;53.452;-2.264;2024-02-16T15:26:36;1.17;;;1.07;;
6356;SDS011;3211;53.452;-2.264;2024-02-16T15:29:24;3.20;;;1.37;;
6356;SDS011;3211;53.452;-2.264;2024-02-16T15:32:12;5.13;;;1.20;;
6356;SDS011;3211;53.452;-2.264;2024-02-16T15:35:01;3.83;;;1.20;;
6356;SDS011;3211;53.452;-2.264;2024-02-16T15:37:48;2.80;;;1.10;;
6356;SDS011;3211;53.452;-2.264;2024-02-16T15:40:36;1.33;;;1.23;;
6356;SDS011;3211;53.452;-2.264;2024-02-16T15:43:23;2.83;;;1.10;;
6356;SDS011;3211;53.452;-2.264;2024-02-16T15:46:11;1.03;;;0.93;;
6356;SDS011;3211;53.452;-2.264;2024-02-16T15:48:58;2.83;;;1.23;;
6356;SDS011;3211;53.452;-2.264;2024-02-16T15:51:47;3.00;;;1.20;;
6356;SDS011;3211;53.452;-2.264;2024-02-16T15:54:34;2.30;;;1.40;;
6356;SDS011;3211;53.452;-2.264;2024-02-16T15:57:21;1.40;;;1.20;;
6356;SDS011;3211;53.452;-2.264;2024-02-16T16:00:09;2.10;;;1.20;;
6356;SDS011;3211;53.452;-2.264;2024-02-16T16:02:57;2.10;;;1.17;;
6356;SDS011;3211;53.452;-2.264;2024-02-16T16:05:46;2.23;;;1.40;;
6356;SDS011;3211;53.452;-2.264;2024-02-16T16:08:34;2.80;;;1.63;;
6356;SDS011;3211;53.452;-2.264;2024-02-16T16:11:22;4.43;;;1.60;;
6356;SDS011;3211;53.452;-2.264;2024-02-16T16:14:10;1.80;;;1.40;;
6356;SDS011;3211;53.452;-2.264;2024-02-16T16:16:58;2.83;;;1.33;;
6356;SDS011;3211;53.452;-2.264;2024-02-16T16:19:45;2.27;;;1.37;;
6356;SDS011;3211;53.452;-2.264;2024-02-16T16:22:32;5.13;;;1.50;;
6356;SDS011;3211;53.452;-2.264;2024-02-16T16:25:21;2.07;;;1.30;;
6356;SDS011;3211;53.452;-2.264;2024-02-16T16:28:08;1.67;;;1.37;;
6356;SDS011;3211;53.452;-2.264;2024-02-16T16:30:56;1.73;;;1.40;;
6356;SDS011;3211;53.452;-2.264;2024-02-16T16:33:43;7.37;;;1.93;;
6356;SDS011;3211;53.452;-2.264;2024-02-16T16:36:30;2.53;;;1.50;;
6356;SDS011;3211;53.452;-2.264;2024-02-16T16:39:17;3.50;;;1.80;;
6356;SDS011;3211;53.452;-2.264;2024-02-16T16:42:07;2.67;;;1.50;;
6356;SDS011;3211;53.452;-2.264;2024-02-16T16:44:54;7.23;;;1.70;;
6356;SDS011;3211;53.452;-2.264;2024-02-16T16:47:42;1.60;;;1.40;;
6356;SDS011;3211;53.452;-2.264;2024-02-16T16:50:30;1.73;;;1.20;;
6356;SDS011;3211;53.452;-2.264;2024-02-16T16:53:18;1.90;;;1.40;;
6356;SDS011;3211;53.452;-2.264;2024-02-16T16:56:06;2.50;;;2.00;;
6356;SDS011;3211;53.452;-2.264;2024-02-16T16:58:55;1.97;;;1.77;;
6356;SDS011;3211;53.452;-2.264;2024-02-16T17:01:43;4.17;;;1.40;;
6356;SDS011;3211;53.452;-2.264;2024-02-16T17:04:32;2.63;;;1.53;;
6356;SDS011;3211;53.452;-2.264;2024-02-16T17:07:21;1.40;;;1.30;;